KDAA/DAA METAR and TAF weather

Enter ICAO airport designator
Station Type Date Time Source
KDAA METAR 2021/09/23 23:56 UTC NOAA

KDAA 232356Z AUTO 33005KT 10SM BKN050 OVC060 20/11 A2997 RMK AO2 SLP151 T01960108 10255 20196 52035 $


Station Type Date Time Source
KDAA Decoded METAR 2021/09/23 23:56 UTC NOAA

Fort Belvoir, VA, United States (KDAA) 38-43N 077-11W
Sep 23, 2021 - 07:56 PM EDT / 2021.09.23 2356 UTC
Wind: from the NNW (330 degrees) at 6 MPH (5 KT):0
Visibility: 10 mile(s):0
Sky conditions: overcast
Temperature: 67.3 F (19.6 C)
Dew Point: 51.4 F (10.8 C)
Relative Humidity: 56%
Pressure (altimeter): 29.97 in. Hg (1014 hPa)
Pressure tendency: 0.10 inches (3.5 hPa) higher than three hours ago
ob: KDAA 232356Z AUTO 33005KT 10SM BKN050 OVC060 20/11 A2997 RMK AO2 SLP151 T01960108 10255 20196 52035
cycle: 0

Station Type Date Time Source
KDAA TAF 2021/09/23 22:15 UTC NOAA

TAF
AMD KDAA 232206Z 2322/2502 31010G15KT 9999 SCT035 BKN055 QNH2985INS
BECMG 2401/2402 31009KT 9999 SCT055 QNH2995INS
BECMG 2405/2406 VRB06KT 9999 SKC QNH3001INS
BECMG 2409/2410 VRB06KT 4800 BR SKC QNH3005INS
BECMG 2411/2412 VRB06KT 9999 NSW SKC QNH3010INS
BECMG 2414/2415 32010G15KT 9999 SKC QNH3007INS
BECMG 2423/2424 VRB06KT 9999 SKC QNH3009INS TX22/2419Z TN10/2411Z LAST NO
AMDS AFT 2401 NEXT 2412

Example: see airport list